sensor_id;sensor_type;location;lat;lon;timestamp;P1;durP1;ratioP1;P2;durP2;ratioP2
54005;SDS011;39919;38.160;-122.260;2023-05-19T00:04:17;4.93;;;0.85;;
54005;SDS011;39919;38.160;-122.260;2023-05-19T00:07:03;4.82;;;0.82;;
54005;SDS011;39919;38.160;-122.260;2023-05-19T00:10:02;9.00;;;1.40;;
54005;SDS011;39919;38.160;-122.260;2023-05-19T00:15:49;6.55;;;1.17;;
54005;SDS011;39919;38.160;-122.260;2023-05-19T00:18:53;7.25;;;1.13;;
54005;SDS011;39919;38.160;-122.260;2023-05-19T00:22:16;10.32;;;1.50;;
54005;SDS011;39919;38.160;-122.260;2023-05-19T00:44:53;4.38;;;0.85;;
54005;SDS011;39919;38.160;-122.260;2023-05-19T00:47:22;4.55;;;0.65;;
54005;SDS011;39919;38.160;-122.260;2023-05-19T00:50:20;7.25;;;1.58;;
54005;SDS011;39919;38.160;-122.260;2023-05-19T00:55:30;16.17;;;1.75;;
54005;SDS011;39919;38.160;-122.260;2023-05-19T00:58:19;10.65;;;1.30;;
54005;SDS011;39919;38.160;-122.260;2023-05-19T01:04:14;9.88;;;1.33;;
54005;SDS011;39919;38.160;-122.260;2023-05-19T01:06:56;6.55;;;0.88;;
54005;SDS011;39919;38.160;-122.260;2023-05-19T01:10:21;5.78;;;1.20;;
54005;SDS011;39919;38.160;-122.260;2023-05-19T02:13:36;9.48;;;1.20;;
54005;SDS011;39919;38.160;-122.260;2023-05-19T02:19:33;10.05;;;2.15;;
54005;SDS011;39919;38.160;-122.260;2023-05-19T02:22:33;12.63;;;2.20;;
54005;SDS011;39919;38.160;-122.260;2023-05-19T02:25:06;9.23;;;0.75;;
54005;SDS011;39919;38.160;-122.260;2023-05-19T02:27:56;15.65;;;1.90;;
54005;SDS011;39919;38.160;-122.260;2023-05-19T02:30:35;15.52;;;2.35;;
54005;SDS011;39919;38.160;-122.260;2023-05-19T02:36:40;11.98;;;1.67;;
54005;SDS011;39919;38.160;-122.260;2023-05-19T02:39:14;15.15;;;2.17;;
54005;SDS011;39919;38.160;-122.260;2023-05-19T02:41:54;12.27;;;1.98;;
54005;SDS011;39919;38.160;-122.260;2023-05-19T02:44:23;14.55;;;1.88;;
54005;SDS011;39919;38.160;-122.260;2023-05-19T02:46:53;9.05;;;1.27;;
54005;SDS011;39919;38.160;-122.260;2023-05-19T02:49:25;12.40;;;1.83;;
54005;SDS011;39919;38.160;-122.260;2023-05-19T02:52:00;14.25;;;2.90;;
54005;SDS011;39919;38.160;-122.260;2023-05-19T02:54:34;17.00;;;1.70;;
54005;SDS011;39919;38.160;-122.260;2023-05-19T02:57:04;10.10;;;1.15;;
54005;SDS011;39919;38.160;-122.260;2023-05-19T02:59:33;10.68;;;1.90;;
54005;SDS011;39919;38.160;-122.260;2023-05-19T03:02:04;12.15;;;2.25;;
54005;SDS011;39919;38.160;-122.260;2023-05-19T03:04:39;13.23;;;1.10;;
54005;SDS011;39919;38.160;-122.260;2023-05-19T03:07:08;15.30;;;1.42;;
54005;SDS011;39919;38.160;-122.260;2023-05-19T03:09:38;11.15;;;1.77;;
54005;SDS011;39919;38.160;-122.260;2023-05-19T03:12:07;11.40;;;1.55;;
54005;SDS011;39919;38.160;-122.260;2023-05-19T03:14:49;12.55;;;1.88;;
54005;SDS011;39919;38.160;-122.260;2023-05-19T03:17:23;9.07;;;1.63;;
54005;SDS011;39919;38.160;-122.260;2023-05-19T03:19:59;15.48;;;1.45;;
54005;SDS011;39919;38.160;-122.260;2023-05-19T03:22:32;11.52;;;1.80;;
54005;SDS011;39919;38.160;-122.260;2023-05-19T03:25:05;10.20;;;1.48;;
54005;SDS011;39919;38.160;-122.260;2023-05-19T03:27:35;12.95;;;1.60;;
54005;SDS011;39919;38.160;-122.260;2023-05-19T03:30:05;8.43;;;1.60;;
54005;SDS011;39919;38.160;-122.260;2023-05-19T03:32:58;10.20;;;1.70;;
54005;SDS011;39919;38.160;-122.260;2023-05-19T03:35:30;11.68;;;1.42;;
54005;SDS011;39919;38.160;-122.260;2023-05-19T03:37:59;12.10;;;1.30;;
54005;SDS011;39919;38.160;-122.260;2023-05-19T03:40:29;15.35;;;2.05;;
54005;SDS011;39919;38.160;-122.260;2023-05-19T03:43:01;14.70;;;1.92;;
54005;SDS011;39919;38.160;-122.260;2023-05-19T03:45:34;13.63;;;1.65;;
54005;SDS011;39919;38.160;-122.260;2023-05-19T03:48:06;15.13;;;1.98;;
54005;SDS011;39919;38.160;-122.260;2023-05-19T03:50:38;9.70;;;1.70;;
54005;SDS011;39919;38.160;-122.260;2023-05-19T03:53:10;15.15;;;1.63;;
54005;SDS011;39919;38.160;-122.260;2023-05-19T03:55:42;17.02;;;2.30;;
54005;SDS011;39919;38.160;-122.260;2023-05-19T03:58:15;19.25;;;3.15;;
54005;SDS011;39919;38.160;-122.260;2023-05-19T04:00:49;9.10;;;2.55;;
54005;SDS011;39919;38.160;-122.260;2023-05-19T04:03:21;18.25;;;1.95;;
54005;SDS011;39919;38.160;-122.260;2023-05-19T04:05:53;12.35;;;1.98;;
54005;SDS011;39919;38.160;-122.260;2023-05-19T04:08:29;13.40;;;1.45;;
54005;SDS011;39919;38.160;-122.260;2023-05-19T04:11:03;12.00;;;2.63;;
54005;SDS011;39919;38.160;-122.260;2023-05-19T04:13:38;19.63;;;2.45;;
54005;SDS011;39919;38.160;-122.260;2023-05-19T04:16:10;13.02;;;1.67;;
54005;SDS011;39919;38.160;-122.260;2023-05-19T04:18:44;14.25;;;2.78;;
54005;SDS011;39919;38.160;-122.260;2023-05-19T04:21:25;12.10;;;1.75;;
54005;SDS011;39919;38.160;-122.260;2023-05-19T04:26:27;15.40;;;1.83;;
54005;SDS011;39919;38.160;-122.260;2023-05-19T04:28:59;15.10;;;1.52;;
54005;SDS011;39919;38.160;-122.260;2023-05-19T04:31:32;14.50;;;2.17;;
54005;SDS011;39919;38.160;-122.260;2023-05-19T04:34:03;10.98;;;1.40;;
54005;SDS011;39919;38.160;-122.260;2023-05-19T04:36:32;16.35;;;1.50;;
54005;SDS011;39919;38.160;-122.260;2023-05-19T04:39:01;11.88;;;2.78;;
54005;SDS011;39919;38.160;-122.260;2023-05-19T04:41:32;11.88;;;2.22;;
54005;SDS011;39919;38.160;-122.260;2023-05-19T04:44:10;13.70;;;2.17;;
54005;SDS011;39919;38.160;-122.260;2023-05-19T04:46:42;15.23;;;1.70;;
54005;SDS011;39919;38.160;-122.260;2023-05-19T04:49:13;13.63;;;1.98;;
54005;SDS011;39919;38.160;-122.260;2023-05-19T04:51:46;12.63;;;2.05;;
54005;SDS011;39919;38.160;-122.260;2023-05-19T04:54:17;10.88;;;1.63;;
54005;SDS011;39919;38.160;-122.260;2023-05-19T04:56:51;8.50;;;1.63;;
54005;SDS011;39919;38.160;-122.260;2023-05-19T04:59:20;15.70;;;1.88;;
54005;SDS011;39919;38.160;-122.260;2023-05-19T05:02:01;11.40;;;1.55;;
54005;SDS011;39919;38.160;-122.260;2023-05-19T05:04:36;10.10;;;1.98;;
54005;SDS011;39919;38.160;-122.260;2023-05-19T05:07:08;18.25;;;1.95;;
54005;SDS011;39919;38.160;-122.260;2023-05-19T05:09:43;13.45;;;1.67;;
54005;SDS011;39919;38.160;-122.260;2023-05-19T05:12:15;20.33;;;2.15;;
54005;SDS011;39919;38.160;-122.260;2023-05-19T05:14:48;13.10;;;1.58;;
54005;SDS011;39919;38.160;-122.260;2023-05-19T05:17:23;17.02;;;1.90;;
54005;SDS011;39919;38.160;-122.260;2023-05-19T05:19:55;12.07;;;1.42;;
54005;SDS011;39919;38.160;-122.260;2023-05-19T05:22:27;24.30;;;2.70;;
54005;SDS011;39919;38.160;-122.260;2023-05-19T05:24:56;11.13;;;1.42;;
54005;SDS011;39919;38.160;-122.260;2023-05-19T05:27:28;13.18;;;2.00;;
54005;SDS011;39919;38.160;-122.260;2023-05-19T05:30:00;14.02;;;2.15;;
54005;SDS011;39919;38.160;-122.260;2023-05-19T05:32:29;11.73;;;2.13;;
54005;SDS011;39919;38.160;-122.260;2023-05-19T05:35:11;10.60;;;1.90;;
54005;SDS011;39919;38.160;-122.260;2023-05-19T05:37:40;17.25;;;2.53;;
54005;SDS011;39919;38.160;-122.260;2023-05-19T05:40:15;16.48;;;1.80;;
54005;SDS011;39919;38.160;-122.260;2023-05-19T05:42:44;22.15;;;2.33;;
54005;SDS011;39919;38.160;-122.260;2023-05-19T05:45:16;14.23;;;1.83;;
54005;SDS011;39919;38.160;-122.260;2023-05-19T05:47:47;11.43;;;2.00;;
54005;SDS011;39919;38.160;-122.260;2023-05-19T05:50:19;11.32;;;1.20;;
54005;SDS011;39919;38.160;-122.260;2023-05-19T05:52:48;15.02;;;2.25;;
54005;SDS011;39919;38.160;-122.260;2023-05-19T05:55:20;12.23;;;1.80;;
54005;SDS011;39919;38.160;-122.260;2023-05-19T05:57:52;15.18;;;2.63;;
54005;SDS011;39919;38.160;-122.260;2023-05-19T06:00:21;14.25;;;2.03;;
54005;SDS011;39919;38.160;-122.260;2023-05-19T06:02:52;17.67;;;1.52;;
54005;SDS011;39919;38.160;-122.260;2023-05-19T06:05:26;12.00;;;1.58;;
54005;SDS011;39919;38.160;-122.260;2023-05-19T06:07:55;13.73;;;1.45;;
54005;SDS011;39919;38.160;-122.260;2023-05-19T06:10:24;17.10;;;2.38;;
54005;SDS011;39919;38.160;-122.260;2023-05-19T06:12:54;14.82;;;1.42;;
54005;SDS011;39919;38.160;-122.260;2023-05-19T06:15:23;10.70;;;1.55;;
54005;SDS011;39919;38.160;-122.260;2023-05-19T06:17:53;17.13;;;2.50;;
54005;SDS011;39919;38.160;-122.260;2023-05-19T06:20:22;11.00;;;1.65;;
54005;SDS011;39919;38.160;-122.260;2023-05-19T06:22:53;18.85;;;3.15;;
54005;SDS011;39919;38.160;-122.260;2023-05-19T06:25:40;19.73;;;2.42;;
54005;SDS011;39919;38.160;-122.260;2023-05-19T06:28:09;14.05;;;2.17;;
54005;SDS011;39919;38.160;-122.260;2023-05-19T06:30:38;14.32;;;2.13;;
54005;SDS011;39919;38.160;-122.260;2023-05-19T06:33:07;15.88;;;1.75;;
54005;SDS011;39919;38.160;-122.260;2023-05-19T06:35:36;15.70;;;1.85;;
54005;SDS011;39919;38.160;-122.260;2023-05-19T06:38:07;15.23;;;1.85;;
54005;SDS011;39919;38.160;-122.260;2023-05-19T06:40:36;14.70;;;2.28;;
54005;SDS011;39919;38.160;-122.260;2023-05-19T06:43:05;16.65;;;2.85;;
54005;SDS011;39919;38.160;-122.260;2023-05-19T06:45:34;13.98;;;1.85;;
54005;SDS011;39919;38.160;-122.260;2023-05-19T06:48:04;11.77;;;1.92;;
54005;SDS011;39919;38.160;-122.260;2023-05-19T06:50:33;20.67;;;3.00;;
54005;SDS011;39919;38.160;-122.260;2023-05-19T06:53:02;14.60;;;1.98;;
54005;SDS011;39919;38.160;-122.260;2023-05-19T06:55:33;12.45;;;1.92;;
54005;SDS011;39919;38.160;-122.260;2023-05-19T06:58:02;18.27;;;2.13;;
54005;SDS011;39919;38.160;-122.260;2023-05-19T07:00:32;15.60;;;2.85;;
54005;SDS011;39919;38.160;-122.260;2023-05-19T07:03:01;13.48;;;1.80;;
54005;SDS011;39919;38.160;-122.260;2023-05-19T07:05:30;22.23;;;2.88;;
54005;SDS011;39919;38.160;-122.260;2023-05-19T07:07:59;12.38;;;1.58;;
54005;SDS011;39919;38.160;-122.260;2023-05-19T07:10:44;14.82;;;1.60;;
54005;SDS011;39919;38.160;-122.260;2023-05-19T07:13:13;13.27;;;2.42;;
54005;SDS011;39919;38.160;-122.260;2023-05-19T07:15:43;19.75;;;2.10;;
54005;SDS011;39919;38.160;-122.260;2023-05-19T07:18:13;15.93;;;1.92;;
54005;SDS011;39919;38.160;-122.260;2023-05-19T07:20:44;14.38;;;2.17;;
54005;SDS011;39919;38.160;-122.260;2023-05-19T07:23:13;12.25;;;1.60;;
54005;SDS011;39919;38.160;-122.260;2023-05-19T07:25:44;16.23;;;2.00;;
54005;SDS011;39919;38.160;-122.260;2023-05-19T07:28:14;16.15;;;2.20;;
54005;SDS011;39919;38.160;-122.260;2023-05-19T07:30:43;14.65;;;1.75;;
54005;SDS011;39919;38.160;-122.260;2023-05-19T07:33:12;15.68;;;1.63;;
54005;SDS011;39919;38.160;-122.260;2023-05-19T07:35:41;12.95;;;1.52;;
54005;SDS011;39919;38.160;-122.260;2023-05-19T07:38:11;14.00;;;2.05;;
54005;SDS011;39919;38.160;-122.260;2023-05-19T07:40:40;10.65;;;1.65;;
54005;SDS011;39919;38.160;-122.260;2023-05-19T07:43:11;17.45;;;2.08;;
54005;SDS011;39919;38.160;-122.260;2023-05-19T07:45:40;13.85;;;2.63;;
54005;SDS011;39919;38.160;-122.260;2023-05-19T07:48:09;15.45;;;2.03;;
54005;SDS011;39919;38.160;-122.260;2023-05-19T07:50:38;15.25;;;1.90;;
54005;SDS011;39919;38.160;-122.260;2023-05-19T07:53:10;12.52;;;1.67;;
54005;SDS011;39919;38.160;-122.260;2023-05-19T07:55:39;11.77;;;2.55;;
54005;SDS011;39919;38.160;-122.260;2023-05-19T07:58:08;16.33;;;2.30;;
54005;SDS011;39919;38.160;-122.260;2023-05-19T08:00:40;14.38;;;1.38;;
54005;SDS011;39919;38.160;-122.260;2023-05-19T08:03:10;14.20;;;1.60;;
54005;SDS011;39919;38.160;-122.260;2023-05-19T08:05:42;12.63;;;1.35;;
54005;SDS011;39919;38.160;-122.260;2023-05-19T08:08:11;19.23;;;1.75;;
54005;SDS011;39919;38.160;-122.260;2023-05-19T08:10:44;17.13;;;2.63;;
54005;SDS011;39919;38.160;-122.260;2023-05-19T08:13:15;14.10;;;2.08;;
54005;SDS011;39919;38.160;-122.260;2023-05-19T08:15:44;14.23;;;1.77;;
54005;SDS011;39919;38.160;-122.260;2023-05-19T08:18:13;21.95;;;2.33;;
54005;SDS011;39919;38.160;-122.260;2023-05-19T08:20:44;17.17;;;2.10;;
54005;SDS011;39919;38.160;-122.260;2023-05-19T08:23:13;16.52;;;2.20;;
54005;SDS011;39919;38.160;-122.260;2023-05-19T08:25:43;12.18;;;1.42;;
54005;SDS011;39919;38.160;-122.260;2023-05-19T08:28:12;20.67;;;2.42;;
54005;SDS011;39919;38.160;-122.260;2023-05-19T08:30:43;12.57;;;2.17;;
54005;SDS011;39919;38.160;-122.260;2023-05-19T08:33:12;13.40;;;2.05;;
54005;SDS011;39919;38.160;-122.260;2023-05-19T08:35:41;18.70;;;3.00;;
54005;SDS011;39919;38.160;-122.260;2023-05-19T08:38:11;15.50;;;1.80;;
54005;SDS011;39919;38.160;-122.260;2023-05-19T08:40:40;22.13;;;3.05;;
54005;SDS011;39919;38.160;-122.260;2023-05-19T08:43:10;14.18;;;1.92;;
54005;SDS011;39919;38.160;-122.260;2023-05-19T08:45:42;15.68;;;1.85;;
54005;SDS011;39919;38.160;-122.260;2023-05-19T08:48:13;16.80;;;1.83;;
54005;SDS011;39919;38.160;-122.260;2023-05-19T08:50:45;14.05;;;2.00;;
54005;SDS011;39919;38.160;-122.260;2023-05-19T08:53:22;16.87;;;2.37;;
54005;SDS011;39919;38.160;-122.260;2023-05-19T08:55:56;18.92;;;2.60;;
54005;SDS011;39919;38.160;-122.260;2023-05-19T08:58:29;15.88;;;2.13;;
54005;SDS011;39919;38.160;-122.260;2023-05-19T09:01:00;15.95;;;1.77;;
54005;SDS011;39919;38.160;-122.260;2023-05-19T09:03:31;16.95;;;2.20;;
54005;SDS011;39919;38.160;-122.260;2023-05-19T09:06:04;17.15;;;2.65;;
54005;SDS011;39919;38.160;-122.260;2023-05-19T09:08:34;15.93;;;2.45;;
54005;SDS011;39919;38.160;-122.260;2023-05-19T09:11:03;13.15;;;3.28;;
54005;SDS011;39919;38.160;-122.260;2023-05-19T09:13:32;16.42;;;2.20;;
54005;SDS011;39919;38.160;-122.260;2023-05-19T09:16:03;12.15;;;1.98;;
54005;SDS011;39919;38.160;-122.260;2023-05-19T09:18:32;14.73;;;2.10;;
54005;SDS011;39919;38.160;-122.260;2023-05-19T09:21:05;17.77;;;2.55;;
54005;SDS011;39919;38.160;-122.260;2023-05-19T09:23:35;13.70;;;1.98;;
54005;SDS011;39919;38.160;-122.260;2023-05-19T09:26:05;14.73;;;1.90;;
54005;SDS011;39919;38.160;-122.260;2023-05-19T09:28:35;11.25;;;1.88;;
54005;SDS011;39919;38.160;-122.260;2023-05-19T09:31:07;14.00;;;3.17;;
54005;SDS011;39919;38.160;-122.260;2023-05-19T09:33:38;11.70;;;1.83;;
54005;SDS011;39919;38.160;-122.260;2023-05-19T09:36:07;5.70;;;0.98;;
54005;SDS011;39919;38.160;-122.260;2023-05-19T09:38:37;4.18;;;0.82;;
54005;SDS011;39919;38.160;-122.260;2023-05-19T09:41:07;3.78;;;0.80;;
54005;SDS011;39919;38.160;-122.260;2023-05-19T09:43:36;2.50;;;0.50;;
54005;SDS011;39919;38.160;-122.260;2023-05-19T09:46:07;4.80;;;1.00;;
54005;SDS011;39919;38.160;-122.260;2023-05-19T09:48:37;6.07;;;0.90;;
54005;SDS011;39919;38.160;-122.260;2023-05-19T09:51:06;8.98;;;0.85;;
54005;SDS011;39919;38.160;-122.260;2023-05-19T09:53:36;11.13;;;1.00;;
54005;SDS011;39919;38.160;-122.260;2023-05-19T09:56:05;4.15;;;1.08;;
54005;SDS011;39919;38.160;-122.260;2023-05-19T09:58:36;9.55;;;0.90;;
54005;SDS011;39919;38.160;-122.260;2023-05-19T10:01:10;6.20;;;1.45;;
54005;SDS011;39919;38.160;-122.260;2023-05-19T10:03:39;4.55;;;0.40;;
54005;SDS011;39919;38.160;-122.260;2023-05-19T10:06:09;8.23;;;0.80;;
54005;SDS011;39919;38.160;-122.260;2023-05-19T10:08:40;5.72;;;1.00;;
54005;SDS011;39919;38.160;-122.260;2023-05-19T10:11:10;7.97;;;1.45;;
54005;SDS011;39919;38.160;-122.260;2023-05-19T10:13:40;6.28;;;0.90;;
54005;SDS011;39919;38.160;-122.260;2023-05-19T10:16:11;6.55;;;0.95;;
54005;SDS011;39919;38.160;-122.260;2023-05-19T10:18:42;5.05;;;0.88;;
54005;SDS011;39919;38.160;-122.260;2023-05-19T10:21:11;5.40;;;1.25;;
54005;SDS011;39919;38.160;-122.260;2023-05-19T10:23:42;10.52;;;1.45;;
54005;SDS011;39919;38.160;-122.260;2023-05-19T10:26:11;14.52;;;2.15;;
54005;SDS011;39919;38.160;-122.260;2023-05-19T10:28:40;6.63;;;0.85;;
54005;SDS011;39919;38.160;-122.260;2023-05-19T10:31:14;7.88;;;1.02;;
54005;SDS011;39919;38.160;-122.260;2023-05-19T10:33:55;5.53;;;0.38;;
54005;SDS011;39919;38.160;-122.260;2023-05-19T10:36:48;5.05;;;0.73;;
54005;SDS011;39919;38.160;-122.260;2023-05-19T10:39:24;5.95;;;1.20;;
54005;SDS011;39919;38.160;-122.260;2023-05-19T10:41:59;7.32;;;1.27;;
54005;SDS011;39919;38.160;-122.260;2023-05-19T10:44:42;5.05;;;1.15;;
54005;SDS011;39919;38.160;-122.260;2023-05-19T10:47:24;3.78;;;0.60;;
54005;SDS011;39919;38.160;-122.260;2023-05-19T10:49:53;9.77;;;1.00;;
54005;SDS011;39919;38.160;-122.260;2023-05-19T10:52:22;6.47;;;0.90;;
54005;SDS011;39919;38.160;-122.260;2023-05-19T10:54:54;14.38;;;1.73;;
54005;SDS011;39919;38.160;-122.260;2023-05-19T10:57:24;5.88;;;0.70;;
54005;SDS011;39919;38.160;-122.260;2023-05-19T10:59:56;7.70;;;1.13;;
54005;SDS011;39919;38.160;-122.260;2023-05-19T11:02:37;3.75;;;0.57;;
54005;SDS011;39919;38.160;-122.260;2023-05-19T11:05:07;9.35;;;1.00;;
54005;SDS011;39919;38.160;-122.260;2023-05-19T11:07:40;3.65;;;0.68;;
54005;SDS011;39919;38.160;-122.260;2023-05-19T11:10:10;4.65;;;0.40;;
54005;SDS011;39919;38.160;-122.260;2023-05-19T11:12:40;7.97;;;0.77;;
54005;SDS011;39919;38.160;-122.260;2023-05-19T11:15:13;1.70;;;0.57;;
54005;SDS011;39919;38.160;-122.260;2023-05-19T11:17:46;3.55;;;0.57;;
54005;SDS011;39919;38.160;-122.260;2023-05-19T11:20:21;11.10;;;1.35;;
54005;SDS011;39919;38.160;-122.260;2023-05-19T11:25:47;4.75;;;0.93;;
54005;SDS011;39919;38.160;-122.260;2023-05-19T11:28:18;4.63;;;0.60;;
54005;SDS011;39919;38.160;-122.260;2023-05-19T11:30:50;8.45;;;1.20;;
54005;SDS011;39919;38.160;-122.260;2023-05-19T11:33:24;8.77;;;2.28;;
54005;SDS011;39919;38.160;-122.260;2023-05-19T11:35:54;7.18;;;0.80;;
54005;SDS011;39919;38.160;-122.260;2023-05-19T11:38:24;6.13;;;0.80;;
54005;SDS011;39919;38.160;-122.260;2023-05-19T11:40:54;8.77;;;1.25;;
54005;SDS011;39919;38.160;-122.260;2023-05-19T11:43:24;3.85;;;0.63;;
54005;SDS011;39919;38.160;-122.260;2023-05-19T11:45:53;3.80;;;0.90;;
54005;SDS011;39919;38.160;-122.260;2023-05-19T11:48:24;5.65;;;1.20;;
54005;SDS011;39919;38.160;-122.260;2023-05-19T11:50:58;9.70;;;1.45;;
54005;SDS011;39919;38.160;-122.260;2023-05-19T11:53:28;13.60;;;2.80;;
54005;SDS011;39919;38.160;-122.260;2023-05-19T11:56:02;15.75;;;3.08;;
54005;SDS011;39919;38.160;-122.260;2023-05-19T11:58:31;14.25;;;2.45;;
54005;SDS011;39919;38.160;-122.260;2023-05-19T12:01:02;14.55;;;3.25;;
54005;SDS011;39919;38.160;-122.260;2023-05-19T12:03:33;15.40;;;3.65;;
54005;SDS011;39919;38.160;-122.260;2023-05-19T12:06:04;18.77;;;2.75;;
54005;SDS011;39919;38.160;-122.260;2023-05-19T12:08:34;18.33;;;3.40;;
54005;SDS011;39919;38.160;-122.260;2023-05-19T12:11:04;15.05;;;1.98;;
54005;SDS011;39919;38.160;-122.260;2023-05-19T12:13:37;15.55;;;2.78;;
54005;SDS011;39919;38.160;-122.260;2023-05-19T12:16:07;9.68;;;2.20;;
54005;SDS011;39919;38.160;-122.260;2023-05-19T12:18:38;12.45;;;2.33;;
54005;SDS011;39919;38.160;-122.260;2023-05-19T12:21:08;19.35;;;2.80;;
54005;SDS011;39919;38.160;-122.260;2023-05-19T12:23:38;18.40;;;3.20;;
54005;SDS011;39919;38.160;-122.260;2023-05-19T12:26:08;10.48;;;2.08;;
54005;SDS011;39919;38.160;-122.260;2023-05-19T12:28:41;9.80;;;1.60;;
54005;SDS011;39919;38.160;-122.260;2023-05-19T12:31:15;11.70;;;2.72;;
54005;SDS011;39919;38.160;-122.260;2023-05-19T12:33:46;15.38;;;2.58;;
54005;SDS011;39919;38.160;-122.260;2023-05-19T12:36:18;13.95;;;2.08;;
54005;SDS011;39919;38.160;-122.260;2023-05-19T12:38:47;13.48;;;2.42;;
54005;SDS011;39919;38.160;-122.260;2023-05-19T12:41:22;12.73;;;2.53;;
54005;SDS011;39919;38.160;-122.260;2023-05-19T12:43:53;12.45;;;2.10;;
54005;SDS011;39919;38.160;-122.260;2023-05-19T12:46:25;13.55;;;2.13;;
54005;SDS011;39919;38.160;-122.260;2023-05-19T12:49:02;8.13;;;1.90;;
54005;SDS011;39919;38.160;-122.260;2023-05-19T12:51:31;9.65;;;2.10;;
54005;SDS011;39919;38.160;-122.260;2023-05-19T12:54:01;12.90;;;3.35;;
54005;SDS011;39919;38.160;-122.260;2023-05-19T12:56:30;16.13;;;4.15;;
54005;SDS011;39919;38.160;-122.260;2023-05-19T12:59:02;10.43;;;2.63;;
54005;SDS011;39919;38.160;-122.260;2023-05-19T13:01:31;10.88;;;3.03;;
54005;SDS011;39919;38.160;-122.260;2023-05-19T13:04:08;8.93;;;1.85;;
54005;SDS011;39919;38.160;-122.260;2023-05-19T13:06:37;6.80;;;1.25;;
54005;SDS011;39919;38.160;-122.260;2023-05-19T13:09:08;8.27;;;1.20;;
54005;SDS011;39919;38.160;-122.260;2023-05-19T13:11:37;8.63;;;1.40;;
54005;SDS011;39919;38.160;-122.260;2023-05-19T13:14:08;4.43;;;1.58;;
54005;SDS011;39919;38.160;-122.260;2023-05-19T13:16:40;5.63;;;1.15;;
54005;SDS011;39919;38.160;-122.260;2023-05-19T13:19:11;6.18;;;1.17;;
54005;SDS011;39919;38.160;-122.260;2023-05-19T13:21:41;7.25;;;1.20;;
54005;SDS011;39919;38.160;-122.260;2023-05-19T13:24:12;5.20;;;0.98;;
54005;SDS011;39919;38.160;-122.260;2023-05-19T13:26:41;3.78;;;0.90;;
54005;SDS011;39919;38.160;-122.260;2023-05-19T13:29:10;5.68;;;0.90;;
54005;SDS011;39919;38.160;-122.260;2023-05-19T13:31:40;4.07;;;0.88;;
54005;SDS011;39919;38.160;-122.260;2023-05-19T13:34:14;4.00;;;0.63;;
54005;SDS011;39919;38.160;-122.260;2023-05-19T13:36:44;3.97;;;0.40;;
54005;SDS011;39919;38.160;-122.260;2023-05-19T13:39:23;4.95;;;0.80;;
54005;SDS011;39919;38.160;-122.260;2023-05-19T13:41:52;3.65;;;0.55;;
54005;SDS011;39919;38.160;-122.260;2023-05-19T13:44:27;1.45;;;0.30;;
54005;SDS011;39919;38.160;-122.260;2023-05-19T13:46:56;2.33;;;0.63;;
54005;SDS011;39919;38.160;-122.260;2023-05-19T13:49:31;1.20;;;0.47;;
54005;SDS011;39919;38.160;-122.260;2023-05-19T13:52:03;1.05;;;0.40;;
54005;SDS011;39919;38.160;-122.260;2023-05-19T13:54:35;1.45;;;0.30;;
54005;SDS011;39919;38.160;-122.260;2023-05-19T13:57:04;1.75;;;0.50;;
54005;SDS011;39919;38.160;-122.260;2023-05-19T13:59:34;3.40;;;0.70;;
54005;SDS011;39919;38.160;-122.260;2023-05-19T14:02:03;2.55;;;0.73;;
54005;SDS011;39919;38.160;-122.260;2023-05-19T14:04:37;1.80;;;0.50;;
54005;SDS011;39919;38.160;-122.260;2023-05-19T14:07:06;3.30;;;0.40;;
54005;SDS011;39919;38.160;-122.260;2023-05-19T14:09:36;4.57;;;0.85;;
54005;SDS011;39919;38.160;-122.260;2023-05-19T14:12:05;1.85;;;0.40;;
54005;SDS011;39919;38.160;-122.260;2023-05-19T14:14:37;4.53;;;0.40;;
54005;SDS011;39919;38.160;-122.260;2023-05-19T14:17:13;2.80;;;0.30;;
54005;SDS011;39919;38.160;-122.260;2023-05-19T14:19:45;2.22;;;0.45;;
54005;SDS011;39919;38.160;-122.260;2023-05-19T14:22:22;2.50;;;0.30;;
54005;SDS011;39919;38.160;-122.260;2023-05-19T14:24:56;1.77;;;0.20;;
54005;SDS011;39919;38.160;-122.260;2023-05-19T14:27:29;2.70;;;0.40;;
54005;SDS011;39919;38.160;-122.260;2023-05-19T14:29:58;2.92;;;0.22;;
54005;SDS011;39919;38.160;-122.260;2023-05-19T14:32:33;3.05;;;0.50;;
54005;SDS011;39919;38.160;-122.260;2023-05-19T14:35:04;3.10;;;0.30;;
54005;SDS011;39919;38.160;-122.260;2023-05-19T14:37:34;3.97;;;0.93;;
54005;SDS011;39919;38.160;-122.260;2023-05-19T14:40:03;2.30;;;0.52;;
54005;SDS011;39919;38.160;-122.260;2023-05-19T14:42:33;2.70;;;0.60;;
54005;SDS011;39919;38.160;-122.260;2023-05-19T14:45:03;1.52;;;0.57;;
54005;SDS011;39919;38.160;-122.260;2023-05-19T14:47:32;7.63;;;0.95;;
54005;SDS011;39919;38.160;-122.260;2023-05-19T14:50:04;0.52;;;0.20;;
54005;SDS011;39919;38.160;-122.260;2023-05-19T14:52:38;3.83;;;0.95;;
54005;SDS011;39919;38.160;-122.260;2023-05-19T14:55:07;3.53;;;1.38;;
54005;SDS011;39919;38.160;-122.260;2023-05-19T14:57:39;4.18;;;0.52;;
54005;SDS011;39919;38.160;-122.260;2023-05-19T15:00:09;4.80;;;0.75;;
54005;SDS011;39919;38.160;-122.260;2023-05-19T15:02:45;2.83;;;0.50;;
54005;SDS011;39919;38.160;-122.260;2023-05-19T15:05:16;1.42;;;0.45;;
54005;SDS011;39919;38.160;-122.260;2023-05-19T15:07:47;1.67;;;0.40;;
54005;SDS011;39919;38.160;-122.260;2023-05-19T15:10:21;3.90;;;1.33;;
54005;SDS011;39919;38.160;-122.260;2023-05-19T15:12:50;7.22;;;0.95;;
54005;SDS011;39919;38.160;-122.260;2023-05-19T15:15:26;9.10;;;1.35;;
54005;SDS011;39919;38.160;-122.260;2023-05-19T15:17:58;5.55;;;1.15;;
54005;SDS011;39919;38.160;-122.260;2023-05-19T15:20:31;6.88;;;1.13;;
54005;SDS011;39919;38.160;-122.260;2023-05-19T15:23:00;7.95;;;1.33;;
54005;SDS011;39919;38.160;-122.260;2023-05-19T15:25:29;2.45;;;0.88;;
54005;SDS011;39919;38.160;-122.260;2023-05-19T15:28:10;6.13;;;0.98;;
54005;SDS011;39919;38.160;-122.260;2023-05-19T15:30:57;4.32;;;1.00;;
54005;SDS011;39919;38.160;-122.260;2023-05-19T15:33:30;12.32;;;1.38;;
54005;SDS011;39919;38.160;-122.260;2023-05-19T15:36:05;2.35;;;0.63;;
54005;SDS011;39919;38.160;-122.260;2023-05-19T15:38:35;2.72;;;0.63;;
54005;SDS011;39919;38.160;-122.260;2023-05-19T15:41:05;1.30;;;0.50;;
54005;SDS011;39919;38.160;-122.260;2023-05-19T15:43:35;4.07;;;0.38;;
54005;SDS011;39919;38.160;-122.260;2023-05-19T15:46:10;3.13;;;0.60;;
54005;SDS011;39919;38.160;-122.260;2023-05-19T15:48:40;5.03;;;0.47;;
54005;SDS011;39919;38.160;-122.260;2023-05-19T15:51:11;6.22;;;1.33;;
54005;SDS011;39919;38.160;-122.260;2023-05-19T15:53:40;4.13;;;1.02;;
54005;SDS011;39919;38.160;-122.260;2023-05-19T15:56:09;5.47;;;0.80;;
54005;SDS011;39919;38.160;-122.260;2023-05-19T15:58:39;5.35;;;1.00;;
54005;SDS011;39919;38.160;-122.260;2023-05-19T16:01:08;6.93;;;1.55;;
54005;SDS011;39919;38.160;-122.260;2023-05-19T16:03:38;5.30;;;1.10;;
54005;SDS011;39919;38.160;-122.260;2023-05-19T16:06:07;9.30;;;1.00;;
54005;SDS011;39919;38.160;-122.260;2023-05-19T16:08:38;7.47;;;1.80;;
54005;SDS011;39919;38.160;-122.260;2023-05-19T16:11:07;5.90;;;1.55;;
54005;SDS011;39919;38.160;-122.260;2023-05-19T16:13:36;3.85;;;1.13;;
54005;SDS011;39919;38.160;-122.260;2023-05-19T16:16:06;9.00;;;1.15;;